sensor_id;sensor_type;location;lat;lon;timestamp;P1;durP1;ratioP1;P2;durP2;ratioP2
20271;SDS011;10295;49.812;9.866;2022-09-09T00:00:18;7.60;;;1.33;;
20271;SDS011;10295;49.812;9.866;2022-09-09T00:02:49;5.87;;;1.30;;
20271;SDS011;10295;49.812;9.866;2022-09-09T00:05:26;7.47;;;1.40;;
20271;SDS011;10295;49.812;9.866;2022-09-09T00:07:58;5.63;;;1.30;;
20271;SDS011;10295;49.812;9.866;2022-09-09T00:10:31;11.77;;;1.70;;
20271;SDS011;10295;49.812;9.866;2022-09-09T00:18:46;6.70;;;1.50;;
20271;SDS011;10295;49.812;9.866;2022-09-09T00:21:17;5.90;;;1.40;;
20271;SDS011;10295;49.812;9.866;2022-09-09T00:23:46;9.60;;;2.10;;
20271;SDS011;10295;49.812;9.866;2022-09-09T00:31:25;8.77;;;1.53;;
20271;SDS011;10295;49.812;9.866;2022-09-09T00:33:53;7.63;;;1.60;;
20271;SDS011;10295;49.812;9.866;2022-09-09T00:36:22;5.93;;;1.50;;
20271;SDS011;10295;49.812;9.866;2022-09-09T00:38:52;5.70;;;1.20;;
20271;SDS011;10295;49.812;9.866;2022-09-09T00:44:36;7.63;;;1.13;;
20271;SDS011;10295;49.812;9.866;2022-09-09T00:46:56;5.03;;;1.20;;
20271;SDS011;10295;49.812;9.866;2022-09-09T00:55:05;6.40;;;1.40;;
20271;SDS011;10295;49.812;9.866;2022-09-09T00:57:34;7.87;;;1.47;;
20271;SDS011;10295;49.812;9.866;2022-09-09T01:00:21;6.20;;;1.67;;
20271;SDS011;10295;49.812;9.866;2022-09-09T01:02:53;7.90;;;1.60;;
20271;SDS011;10295;49.812;9.866;2022-09-09T01:05:30;6.17;;;1.53;;
20271;SDS011;10295;49.812;9.866;2022-09-09T01:08:01;7.40;;;1.33;;
20271;SDS011;10295;49.812;9.866;2022-09-09T01:13:11;3.17;;;1.00;;
20271;SDS011;10295;49.812;9.866;2022-09-09T01:15:41;8.33;;;1.20;;
20271;SDS011;10295;49.812;9.866;2022-09-09T01:18:10;5.43;;;1.20;;
20271;SDS011;10295;49.812;9.866;2022-09-09T01:29:21;6.87;;;1.20;;
20271;SDS011;10295;49.812;9.866;2022-09-09T01:31:56;5.20;;;1.20;;
20271;SDS011;10295;49.812;9.866;2022-09-09T01:34:25;8.70;;;1.60;;
20271;SDS011;10295;49.812;9.866;2022-09-09T01:39:20;8.40;;;1.30;;
20271;SDS011;10295;49.812;9.866;2022-09-09T01:41:47;5.33;;;1.20;;
20271;SDS011;10295;49.812;9.866;2022-09-09T01:44:14;4.97;;;1.20;;
20271;SDS011;10295;49.812;9.866;2022-09-09T01:46:42;4.87;;;1.20;;
20271;SDS011;10295;49.812;9.866;2022-09-09T01:49:09;2.80;;;1.10;;
20271;SDS011;10295;49.812;9.866;2022-09-09T01:51:36;5.30;;;1.30;;
20271;SDS011;10295;49.812;9.866;2022-09-09T01:54:04;8.37;;;1.50;;
20271;SDS011;10295;49.812;9.866;2022-09-09T01:56:39;8.60;;;1.10;;
20271;SDS011;10295;49.812;9.866;2022-09-09T02:02:06;3.60;;;1.17;;
20271;SDS011;10295;49.812;9.866;2022-09-09T02:04:42;4.93;;;1.20;;
20271;SDS011;10295;49.812;9.866;2022-09-09T02:09:43;6.73;;;1.47;;
20271;SDS011;10295;49.812;9.866;2022-09-09T02:12:12;5.23;;;1.30;;
20271;SDS011;10295;49.812;9.866;2022-09-09T02:14:41;9.17;;;1.60;;
20271;SDS011;10295;49.812;9.866;2022-09-09T02:17:09;6.90;;;1.60;;
20271;SDS011;10295;49.812;9.866;2022-09-09T02:19:39;8.80;;;1.63;;
20271;SDS011;10295;49.812;9.866;2022-09-09T02:22:07;5.90;;;1.47;;
20271;SDS011;10295;49.812;9.866;2022-09-09T02:24:35;8.13;;;1.50;;
20271;SDS011;10295;49.812;9.866;2022-09-09T02:27:03;5.23;;;1.40;;
20271;SDS011;10295;49.812;9.866;2022-09-09T02:29:34;7.50;;;1.50;;
20271;SDS011;10295;49.812;9.866;2022-09-09T02:32:03;5.53;;;1.40;;
20271;SDS011;10295;49.812;9.866;2022-09-09T02:34:32;6.60;;;1.50;;
20271;SDS011;10295;49.812;9.866;2022-09-09T02:37:02;10.30;;;1.70;;
20271;SDS011;10295;49.812;9.866;2022-09-09T02:39:30;6.83;;;1.73;;
20271;SDS011;10295;49.812;9.866;2022-09-09T02:41:57;5.90;;;1.63;;
20271;SDS011;10295;49.812;9.866;2022-09-09T02:44:24;8.23;;;2.20;;
20271;SDS011;10295;49.812;9.866;2022-09-09T02:52:02;7.33;;;1.63;;
20271;SDS011;10295;49.812;9.866;2022-09-09T02:54:32;5.33;;;1.60;;
20271;SDS011;10295;49.812;9.866;2022-09-09T02:59:36;7.47;;;1.63;;
20271;SDS011;10295;49.812;9.866;2022-09-09T03:02:04;11.53;;;2.20;;
20271;SDS011;10295;49.812;9.866;2022-09-09T03:04:31;8.03;;;2.00;;
20271;SDS011;10295;49.812;9.866;2022-09-09T03:06:59;8.90;;;1.73;;
20271;SDS011;10295;49.812;9.866;2022-09-09T03:09:26;9.23;;;1.77;;
20271;SDS011;10295;49.812;9.866;2022-09-09T03:11:53;8.70;;;1.70;;
20271;SDS011;10295;49.812;9.866;2022-09-09T03:14:21;6.30;;;1.80;;
20271;SDS011;10295;49.812;9.866;2022-09-09T03:16:51;7.10;;;1.90;;
20271;SDS011;10295;49.812;9.866;2022-09-09T03:19:18;7.03;;;1.90;;
20271;SDS011;10295;49.812;9.866;2022-09-09T03:21:46;10.10;;;2.27;;
20271;SDS011;10295;49.812;9.866;2022-09-09T03:24:13;7.30;;;1.80;;
20271;SDS011;10295;49.812;9.866;2022-09-09T03:26:41;11.07;;;2.13;;
20271;SDS011;10295;49.812;9.866;2022-09-09T03:29:11;8.13;;;2.00;;
20271;SDS011;10295;49.812;9.866;2022-09-09T03:31:39;7.97;;;1.93;;
20271;SDS011;10295;49.812;9.866;2022-09-09T03:34:06;7.37;;;1.83;;
20271;SDS011;10295;49.812;9.866;2022-09-09T03:36:33;8.07;;;1.97;;
20271;SDS011;10295;49.812;9.866;2022-09-09T03:39:01;8.97;;;2.20;;
20271;SDS011;10295;49.812;9.866;2022-09-09T03:41:29;7.37;;;2.10;;
20271;SDS011;10295;49.812;9.866;2022-09-09T03:43:57;14.77;;;2.10;;
20271;SDS011;10295;49.812;9.866;2022-09-09T03:46:24;9.37;;;2.23;;
20271;SDS011;10295;49.812;9.866;2022-09-09T03:48:52;9.43;;;2.00;;
20271;SDS011;10295;49.812;9.866;2022-09-09T03:51:19;11.13;;;2.20;;
20271;SDS011;10295;49.812;9.866;2022-09-09T03:53:48;8.83;;;2.27;;
20271;SDS011;10295;49.812;9.866;2022-09-09T03:56:15;10.33;;;2.00;;
20271;SDS011;10295;49.812;9.866;2022-09-09T03:58:42;6.53;;;2.30;;
20271;SDS011;10295;49.812;9.866;2022-09-09T04:01:11;6.17;;;2.20;;
20271;SDS011;10295;49.812;9.866;2022-09-09T04:03:43;10.00;;;2.23;;
20271;SDS011;10295;49.812;9.866;2022-09-09T04:06:11;8.37;;;2.07;;
20271;SDS011;10295;49.812;9.866;2022-09-09T04:08:40;8.70;;;2.10;;
20271;SDS011;10295;49.812;9.866;2022-09-09T04:11:08;10.83;;;1.93;;
20271;SDS011;10295;49.812;9.866;2022-09-09T04:13:36;5.33;;;2.00;;
20271;SDS011;10295;49.812;9.866;2022-09-09T04:16:04;9.70;;;2.23;;
20271;SDS011;10295;49.812;9.866;2022-09-09T04:18:32;9.53;;;2.00;;
20271;SDS011;10295;49.812;9.866;2022-09-09T04:21:00;7.13;;;1.87;;
20271;SDS011;10295;49.812;9.866;2022-09-09T04:23:28;8.57;;;2.23;;
20271;SDS011;10295;49.812;9.866;2022-09-09T04:25:56;9.33;;;2.53;;
20271;SDS011;10295;49.812;9.866;2022-09-09T04:28:24;10.23;;;2.47;;
20271;SDS011;10295;49.812;9.866;2022-09-09T04:30:51;9.20;;;2.33;;
20271;SDS011;10295;49.812;9.866;2022-09-09T04:33:19;9.30;;;2.27;;
20271;SDS011;10295;49.812;9.866;2022-09-09T04:35:47;7.07;;;2.30;;
20271;SDS011;10295;49.812;9.866;2022-09-09T04:38:16;7.80;;;2.37;;
20271;SDS011;10295;49.812;9.866;2022-09-09T04:40:45;8.03;;;2.00;;
20271;SDS011;10295;49.812;9.866;2022-09-09T04:43:13;8.93;;;2.50;;
20271;SDS011;10295;49.812;9.866;2022-09-09T04:45:41;9.27;;;2.00;;
20271;SDS011;10295;49.812;9.866;2022-09-09T04:48:08;9.70;;;2.50;;
20271;SDS011;10295;49.812;9.866;2022-09-09T04:50:36;11.10;;;2.30;;
20271;SDS011;10295;49.812;9.866;2022-09-09T04:53:03;7.77;;;2.23;;
20271;SDS011;10295;49.812;9.866;2022-09-09T04:55:31;14.60;;;2.80;;
20271;SDS011;10295;49.812;9.866;2022-09-09T04:58:02;8.93;;;2.50;;
20271;SDS011;10295;49.812;9.866;2022-09-09T05:00:29;9.00;;;2.80;;
20271;SDS011;10295;49.812;9.866;2022-09-09T05:02:57;13.83;;;3.10;;
20271;SDS011;10295;49.812;9.866;2022-09-09T05:05:24;10.50;;;2.40;;
20271;SDS011;10295;49.812;9.866;2022-09-09T05:07:51;8.33;;;2.67;;
20271;SDS011;10295;49.812;9.866;2022-09-09T05:10:18;11.00;;;2.80;;
20271;SDS011;10295;49.812;9.866;2022-09-09T05:12:52;9.53;;;2.80;;
20271;SDS011;10295;49.812;9.866;2022-09-09T05:15:20;11.40;;;2.60;;
20271;SDS011;10295;49.812;9.866;2022-09-09T05:17:47;12.57;;;2.17;;
20271;SDS011;10295;49.812;9.866;2022-09-09T05:20:14;8.97;;;2.40;;
20271;SDS011;10295;49.812;9.866;2022-09-09T05:22:42;8.83;;;2.30;;
20271;SDS011;10295;49.812;9.866;2022-09-09T05:25:09;7.87;;;2.30;;
20271;SDS011;10295;49.812;9.866;2022-09-09T05:27:37;8.50;;;1.77;;
20271;SDS011;10295;49.812;9.866;2022-09-09T05:30:04;11.07;;;2.00;;
20271;SDS011;10295;49.812;9.866;2022-09-09T05:32:31;5.97;;;1.47;;
20271;SDS011;10295;49.812;9.866;2022-09-09T05:34:59;7.40;;;1.43;;
20271;SDS011;10295;49.812;9.866;2022-09-09T05:37:27;5.30;;;1.30;;
20271;SDS011;10295;49.812;9.866;2022-09-09T05:39:56;7.73;;;1.73;;
20271;SDS011;10295;49.812;9.866;2022-09-09T05:42:24;6.17;;;1.23;;
20271;SDS011;10295;49.812;9.866;2022-09-09T05:44:51;6.60;;;1.50;;
20271;SDS011;10295;49.812;9.866;2022-09-09T05:47:20;9.53;;;1.27;;
20271;SDS011;10295;49.812;9.866;2022-09-09T05:49:47;7.77;;;1.30;;
20271;SDS011;10295;49.812;9.866;2022-09-09T05:52:15;5.43;;;1.10;;
20271;SDS011;10295;49.812;9.866;2022-09-09T05:54:42;9.37;;;1.40;;
20271;SDS011;10295;49.812;9.866;2022-09-09T05:57:09;7.57;;;1.20;;
20271;SDS011;10295;49.812;9.866;2022-09-09T05:59:37;6.80;;;1.30;;
20271;SDS011;10295;49.812;9.866;2022-09-09T06:02:04;9.77;;;1.20;;
20271;SDS011;10295;49.812;9.866;2022-09-09T06:04:31;6.87;;;1.20;;
20271;SDS011;10295;49.812;9.866;2022-09-09T06:06:59;5.40;;;1.00;;
20271;SDS011;10295;49.812;9.866;2022-09-09T06:09:26;5.03;;;1.20;;
20271;SDS011;10295;49.812;9.866;2022-09-09T06:11:53;6.13;;;1.07;;
20271;SDS011;10295;49.812;9.866;2022-09-09T06:14:20;6.30;;;1.17;;
20271;SDS011;10295;49.812;9.866;2022-09-09T06:16:48;5.50;;;1.17;;
20271;SDS011;10295;49.812;9.866;2022-09-09T06:19:15;7.67;;;1.20;;
20271;SDS011;10295;49.812;9.866;2022-09-09T06:21:42;9.07;;;1.37;;
20271;SDS011;10295;49.812;9.866;2022-09-09T06:24:10;7.57;;;1.13;;
20271;SDS011;10295;49.812;9.866;2022-09-09T06:26:39;4.83;;;1.17;;
20271;SDS011;10295;49.812;9.866;2022-09-09T06:29:07;3.67;;;0.90;;
20271;SDS011;10295;49.812;9.866;2022-09-09T06:31:35;5.50;;;1.00;;
20271;SDS011;10295;49.812;9.866;2022-09-09T06:34:06;3.10;;;0.90;;
20271;SDS011;10295;49.812;9.866;2022-09-09T06:36:35;6.87;;;1.20;;
20271;SDS011;10295;49.812;9.866;2022-09-09T06:39:03;2.90;;;0.80;;
20271;SDS011;10295;49.812;9.866;2022-09-09T06:41:31;5.13;;;0.90;;
20271;SDS011;10295;49.812;9.866;2022-09-09T06:43:59;3.70;;;0.80;;
20271;SDS011;10295;49.812;9.866;2022-09-09T06:46:27;3.37;;;0.80;;
20271;SDS011;10295;49.812;9.866;2022-09-09T06:48:56;6.10;;;1.07;;
20271;SDS011;10295;49.812;9.866;2022-09-09T06:51:31;5.07;;;0.70;;
20271;SDS011;10295;49.812;9.866;2022-09-09T06:53:59;6.43;;;1.10;;
20271;SDS011;10295;49.812;9.866;2022-09-09T06:56:29;4.17;;;1.00;;
20271;SDS011;10295;49.812;9.866;2022-09-09T06:58:57;5.13;;;0.90;;
20271;SDS011;10295;49.812;9.866;2022-09-09T07:01:25;4.80;;;0.93;;
20271;SDS011;10295;49.812;9.866;2022-09-09T07:03:54;5.57;;;0.90;;
20271;SDS011;10295;49.812;9.866;2022-09-09T07:06:22;6.77;;;1.23;;
20271;SDS011;10295;49.812;9.866;2022-09-09T07:08:51;5.63;;;0.95;;
20271;SDS011;10295;49.812;9.866;2022-09-09T07:11:22;4.32;;;0.80;;
20271;SDS011;10295;49.812;9.866;2022-09-09T07:13:50;5.82;;;1.02;;
20271;SDS011;10295;49.812;9.866;2022-09-09T07:16:18;7.57;;;0.90;;
20271;SDS011;10295;49.812;9.866;2022-09-09T07:18:46;3.00;;;0.80;;
20271;SDS011;10295;49.812;9.866;2022-09-09T07:21:13;4.95;;;1.05;;
20271;SDS011;10295;49.812;9.866;2022-09-09T07:23:42;3.47;;;0.70;;
20271;SDS011;10295;49.812;9.866;2022-09-09T07:26:16;5.60;;;0.98;;
20271;SDS011;10295;49.812;9.866;2022-09-09T07:28:45;4.38;;;0.68;;
20271;SDS011;10295;49.812;9.866;2022-09-09T07:31:14;5.70;;;0.98;;
20271;SDS011;10295;49.812;9.866;2022-09-09T07:33:43;5.93;;;0.90;;
20271;SDS011;10295;49.812;9.866;2022-09-09T07:36:17;7.15;;;0.88;;
20271;SDS011;10295;49.812;9.866;2022-09-09T07:38:45;4.13;;;0.90;;
20271;SDS011;10295;49.812;9.866;2022-09-09T07:41:16;5.30;;;0.95;;
20271;SDS011;10295;49.812;9.866;2022-09-09T07:43:45;6.82;;;1.13;;
20271;SDS011;10295;49.812;9.866;2022-09-09T07:46:12;4.32;;;0.80;;
20271;SDS011;10295;49.812;9.866;2022-09-09T07:48:59;4.32;;;0.80;;
20271;SDS011;10295;49.812;9.866;2022-09-09T07:51:28;5.45;;;0.90;;
20271;SDS011;10295;49.812;9.866;2022-09-09T07:53:57;5.57;;;0.98;;
20271;SDS011;10295;49.812;9.866;2022-09-09T07:56:24;4.75;;;0.85;;
20271;SDS011;10295;49.812;9.866;2022-09-09T07:58:52;5.00;;;0.90;;
20271;SDS011;10295;49.812;9.866;2022-09-09T08:01:26;6.47;;;0.95;;
20271;SDS011;10295;49.812;9.866;2022-09-09T08:03:55;6.32;;;0.90;;
20271;SDS011;10295;49.812;9.866;2022-09-09T08:06:26;3.25;;;0.65;;
20271;SDS011;10295;49.812;9.866;2022-09-09T08:08:53;6.18;;;1.20;;
20271;SDS011;10295;49.812;9.866;2022-09-09T08:11:22;4.28;;;0.98;;
20271;SDS011;10295;49.812;9.866;2022-09-09T08:13:50;8.63;;;1.20;;
20271;SDS011;10295;49.812;9.866;2022-09-09T08:16:22;5.25;;;1.10;;
20271;SDS011;10295;49.812;9.866;2022-09-09T08:18:50;4.47;;;1.00;;
20271;SDS011;10295;49.812;9.866;2022-09-09T08:21:18;5.60;;;1.10;;
20271;SDS011;10295;49.812;9.866;2022-09-09T08:23:46;6.50;;;0.90;;
20271;SDS011;10295;49.812;9.866;2022-09-09T08:26:18;5.65;;;0.95;;
20271;SDS011;10295;49.812;9.866;2022-09-09T08:28:49;4.50;;;0.90;;
20271;SDS011;10295;49.812;9.866;2022-09-09T08:31:19;7.18;;;1.17;;
20271;SDS011;10295;49.812;9.866;2022-09-09T08:33:52;4.53;;;0.90;;
20271;SDS011;10295;49.812;9.866;2022-09-09T08:36:20;6.45;;;1.20;;
20271;SDS011;10295;49.812;9.866;2022-09-09T08:38:51;6.30;;;1.02;;
20271;SDS011;10295;49.812;9.866;2022-09-09T08:52:17;8.68;;;1.23;;
20271;SDS011;10295;49.812;9.866;2022-09-09T08:54:45;7.00;;;1.30;;
20271;SDS011;10295;49.812;9.866;2022-09-09T08:57:20;8.05;;;1.40;;
20271;SDS011;10295;49.812;9.866;2022-09-09T08:59:49;6.40;;;1.20;;
20271;SDS011;10295;49.812;9.866;2022-09-09T09:02:18;5.93;;;1.10;;
20271;SDS011;10295;49.812;9.866;2022-09-09T09:05:09;7.13;;;1.20;;
20271;SDS011;10295;49.812;9.866;2022-09-09T09:10:19;6.43;;;1.05;;
20271;SDS011;10295;49.812;9.866;2022-09-09T09:13:08;5.60;;;1.05;;
20271;SDS011;10295;49.812;9.866;2022-09-09T09:15:39;5.53;;;1.00;;
20271;SDS011;10295;49.812;9.866;2022-09-09T09:18:08;5.05;;;1.20;;
20271;SDS011;10295;49.812;9.866;2022-09-09T09:20:54;7.88;;;1.23;;
20271;SDS011;10295;49.812;9.866;2022-09-09T09:23:26;7.20;;;1.42;;
20271;SDS011;10295;49.812;9.866;2022-09-09T09:25:59;8.85;;;1.27;;
20271;SDS011;10295;49.812;9.866;2022-09-09T09:28:28;8.82;;;1.48;;
20271;SDS011;10295;49.812;9.866;2022-09-09T09:30:57;6.35;;;1.00;;
20271;SDS011;10295;49.812;9.866;2022-09-09T09:33:49;7.30;;;1.27;;
20271;SDS011;10295;49.812;9.866;2022-09-09T09:36:16;5.78;;;1.20;;
20271;SDS011;10295;49.812;9.866;2022-09-09T09:38:56;6.38;;;1.30;;
20271;SDS011;10295;49.812;9.866;2022-09-09T09:41:44;5.57;;;1.23;;
20271;SDS011;10295;49.812;9.866;2022-09-09T09:44:27;6.13;;;1.10;;
20271;SDS011;10295;49.812;9.866;2022-09-09T09:49:37;7.72;;;1.40;;
20271;SDS011;10295;49.812;9.866;2022-09-09T09:52:06;7.63;;;1.23;;
20271;SDS011;10295;49.812;9.866;2022-09-09T09:54:37;6.25;;;1.17;;
20271;SDS011;10295;49.812;9.866;2022-09-09T09:57:11;9.88;;;1.58;;
20271;SDS011;10295;49.812;9.866;2022-09-09T09:59:38;5.80;;;1.20;;
20271;SDS011;10295;49.812;9.866;2022-09-09T10:02:31;6.47;;;1.20;;
20271;SDS011;10295;49.812;9.866;2022-09-09T10:05:05;9.27;;;1.40;;
20271;SDS011;10295;49.812;9.866;2022-09-09T10:07:34;6.05;;;1.20;;
20271;SDS011;10295;49.812;9.866;2022-09-09T10:10:03;8.13;;;1.20;;
20271;SDS011;10295;49.812;9.866;2022-09-09T10:23:19;7.88;;;1.45;;
20271;SDS011;10295;49.812;9.866;2022-09-09T10:26:00;8.02;;;1.40;;
20271;SDS011;10295;49.812;9.866;2022-09-09T10:33:51;22.48;;;2.80;;
20271;SDS011;10295;49.812;9.866;2022-09-09T10:36:24;15.68;;;1.80;;
20271;SDS011;10295;49.812;9.866;2022-09-09T10:39:06;12.20;;;2.30;;
20271;SDS011;10295;49.812;9.866;2022-09-09T10:56:50;4.67;;;1.00;;
20271;SDS011;10295;49.812;9.866;2022-09-09T10:59:21;5.73;;;1.00;;
20271;SDS011;10295;49.812;9.866;2022-09-09T11:02:10;7.57;;;1.20;;
20271;SDS011;10295;49.812;9.866;2022-09-09T11:05:00;6.43;;;1.20;;
20271;SDS011;10295;49.812;9.866;2022-09-09T11:07:42;5.53;;;1.10;;
20271;SDS011;10295;49.812;9.866;2022-09-09T11:10:33;5.60;;;1.00;;
20271;SDS011;10295;49.812;9.866;2022-09-09T11:13:05;5.87;;;0.70;;
20271;SDS011;10295;49.812;9.866;2022-09-09T11:15:36;5.40;;;0.90;;
20271;SDS011;10295;49.812;9.866;2022-09-09T11:18:09;2.73;;;0.80;;
20271;SDS011;10295;49.812;9.866;2022-09-09T11:20:39;8.55;;;1.00;;
20271;SDS011;10295;49.812;9.866;2022-09-09T11:23:09;5.72;;;0.88;;
20271;SDS011;10295;49.812;9.866;2022-09-09T11:25:39;4.43;;;0.90;;
20271;SDS011;10295;49.812;9.866;2022-09-09T11:36:15;8.43;;;1.00;;
20271;SDS011;10295;49.812;9.866;2022-09-09T11:38:47;4.65;;;0.68;;
20271;SDS011;10295;49.812;9.866;2022-09-09T11:41:17;3.92;;;0.80;;
20271;SDS011;10295;49.812;9.866;2022-09-09T11:43:47;6.68;;;0.90;;
20271;SDS011;10295;49.812;9.866;2022-09-09T11:46:15;5.82;;;1.15;;
20271;SDS011;10295;49.812;9.866;2022-09-09T11:48:57;6.43;;;1.10;;
20271;SDS011;10295;49.812;9.866;2022-09-09T11:51:25;5.80;;;1.05;;
20271;SDS011;10295;49.812;9.866;2022-09-09T11:53:58;7.55;;;1.33;;
20271;SDS011;10295;49.812;9.866;2022-09-09T11:56:42;4.82;;;0.88;;
20271;SDS011;10295;49.812;9.866;2022-09-09T11:59:20;4.95;;;1.05;;
20271;SDS011;10295;49.812;9.866;2022-09-09T12:02:48;5.38;;;1.00;;
20271;SDS011;10295;49.812;9.866;2022-09-09T12:04:49;6.00;;;1.00;;
20271;SDS011;10295;49.812;9.866;2022-09-09T12:07:23;9.02;;;1.80;;
20271;SDS011;10295;49.812;9.866;2022-09-09T12:12:21;5.68;;;1.20;;
20271;SDS011;10295;49.812;9.866;2022-09-09T12:17:23;3.38;;;0.82;;
20271;SDS011;10295;49.812;9.866;2022-09-09T12:20:06;6.70;;;1.15;;
20271;SDS011;10295;49.812;9.866;2022-09-09T12:22:47;4.00;;;0.80;;
20271;SDS011;10295;49.812;9.866;2022-09-09T12:30:32;6.38;;;1.10;;
20271;SDS011;10295;49.812;9.866;2022-09-09T12:33:02;6.07;;;1.00;;
20271;SDS011;10295;49.812;9.866;2022-09-09T12:35:29;9.43;;;1.17;;
20271;SDS011;10295;49.812;9.866;2022-09-09T12:38:00;7.10;;;0.98;;
20271;SDS011;10295;49.812;9.866;2022-09-09T12:40:30;6.05;;;1.00;;
20271;SDS011;10295;49.812;9.866;2022-09-09T12:42:58;5.65;;;1.20;;
20271;SDS011;10295;49.812;9.866;2022-09-09T12:45:28;5.68;;;1.02;;
20271;SDS011;10295;49.812;9.866;2022-09-09T12:47:58;5.55;;;1.00;;
20271;SDS011;10295;49.812;9.866;2022-09-09T12:50:30;6.03;;;1.08;;
20271;SDS011;10295;49.812;9.866;2022-09-09T12:53:06;5.88;;;1.10;;
20271;SDS011;10295;49.812;9.866;2022-09-09T12:55:37;6.18;;;1.13;;
20271;SDS011;10295;49.812;9.866;2022-09-09T12:58:05;7.72;;;1.40;;
20271;SDS011;10295;49.812;9.866;2022-09-09T13:00:33;4.88;;;0.90;;
20271;SDS011;10295;49.812;9.866;2022-09-09T13:03:02;8.40;;;1.02;;
20271;SDS011;10295;49.812;9.866;2022-09-09T13:05:36;5.95;;;1.00;;
20271;SDS011;10295;49.812;9.866;2022-09-09T13:08:05;4.10;;;0.90;;
20271;SDS011;10295;49.812;9.866;2022-09-09T13:10:35;7.35;;;1.00;;
20271;SDS011;10295;49.812;9.866;2022-09-09T13:13:23;8.73;;;1.15;;
20271;SDS011;10295;49.812;9.866;2022-09-09T13:15:55;6.53;;;0.90;;
20271;SDS011;10295;49.812;9.866;2022-09-09T13:18:23;5.63;;;0.98;;
20271;SDS011;10295;49.812;9.866;2022-09-09T13:20:51;5.65;;;1.00;;
20271;SDS011;10295;49.812;9.866;2022-09-09T13:23:19;4.32;;;0.80;;
20271;SDS011;10295;49.812;9.866;2022-09-09T13:25:56;4.88;;;0.90;;
20271;SDS011;10295;49.812;9.866;2022-09-09T13:28:25;5.30;;;0.90;;
20271;SDS011;10295;49.812;9.866;2022-09-09T13:31:02;4.40;;;0.80;;
20271;SDS011;10295;49.812;9.866;2022-09-09T13:33:33;5.63;;;0.93;;
20271;SDS011;10295;49.812;9.866;2022-09-09T13:36:04;3.35;;;0.68;;
20271;SDS011;10295;49.812;9.866;2022-09-09T13:38:33;3.58;;;0.77;;
20271;SDS011;10295;49.812;9.866;2022-09-09T13:41:03;4.45;;;0.98;;
20271;SDS011;10295;49.812;9.866;2022-09-09T13:43:52;4.38;;;0.85;;
20271;SDS011;10295;49.812;9.866;2022-09-09T13:46:34;4.95;;;0.90;;
20271;SDS011;10295;49.812;9.866;2022-09-09T13:51:36;4.03;;;0.73;;
20271;SDS011;10295;49.812;9.866;2022-09-09T13:54:08;5.70;;;0.80;;
20271;SDS011;10295;49.812;9.866;2022-09-09T13:56:36;5.95;;;1.00;;
20271;SDS011;10295;49.812;9.866;2022-09-09T13:59:04;5.82;;;0.93;;
20271;SDS011;10295;49.812;9.866;2022-09-09T14:01:32;4.97;;;0.73;;
20271;SDS011;10295;49.812;9.866;2022-09-09T14:04:01;7.05;;;0.93;;
20271;SDS011;10295;49.812;9.866;2022-09-09T14:06:28;4.68;;;0.90;;
20271;SDS011;10295;49.812;9.866;2022-09-09T14:08:56;7.05;;;1.10;;
20271;SDS011;10295;49.812;9.866;2022-09-09T14:11:23;5.65;;;0.90;;
20271;SDS011;10295;49.812;9.866;2022-09-09T14:13:50;5.57;;;1.02;;
20271;SDS011;10295;49.812;9.866;2022-09-09T14:16:17;4.80;;;0.93;;
20271;SDS011;10295;49.812;9.866;2022-09-09T14:18:45;5.45;;;0.90;;
20271;SDS011;10295;49.812;9.866;2022-09-09T14:21:12;6.90;;;1.10;;
20271;SDS011;10295;49.812;9.866;2022-09-09T14:23:40;5.15;;;1.10;;
20271;SDS011;10295;49.812;9.866;2022-09-09T14:26:07;4.53;;;0.90;;
20271;SDS011;10295;49.812;9.866;2022-09-09T14:28:35;6.20;;;1.10;;
20271;SDS011;10295;49.812;9.866;2022-09-09T14:31:23;4.88;;;0.80;;
20271;SDS011;10295;49.812;9.866;2022-09-09T14:33:50;4.60;;;1.00;;
20271;SDS011;10295;49.812;9.866;2022-09-09T14:36:18;5.18;;;0.90;;
20271;SDS011;10295;49.812;9.866;2022-09-09T14:38:46;5.97;;;0.90;;
20271;SDS011;10295;49.812;9.866;2022-09-09T14:41:14;4.57;;;0.90;;
20271;SDS011;10295;49.812;9.866;2022-09-09T14:43:44;6.88;;;1.00;;
20271;SDS011;10295;49.812;9.866;2022-09-09T14:46:12;6.38;;;0.85;;
20271;SDS011;10295;49.812;9.866;2022-09-09T14:48:40;5.63;;;0.73;;
20271;SDS011;10295;49.812;9.866;2022-09-09T14:51:08;8.52;;;1.10;;
20271;SDS011;10295;49.812;9.866;2022-09-09T14:53:35;8.95;;;1.10;;
20271;SDS011;10295;49.812;9.866;2022-09-09T14:56:04;10.30;;;1.25;;
20271;SDS011;10295;49.812;9.866;2022-09-09T14:58:32;9.07;;;1.30;;
20271;SDS011;10295;49.812;9.866;2022-09-09T15:01:03;8.03;;;1.10;;
20271;SDS011;10295;49.812;9.866;2022-09-09T15:03:31;8.03;;;1.07;;
20271;SDS011;10295;49.812;9.866;2022-09-09T15:05:58;7.43;;;1.10;;
20271;SDS011;10295;49.812;9.866;2022-09-09T15:08:25;8.33;;;1.17;;
20271;SDS011;10295;49.812;9.866;2022-09-09T15:10:59;7.67;;;1.10;;
20271;SDS011;10295;49.812;9.866;2022-09-09T15:13:27;8.13;;;1.30;;
20271;SDS011;10295;49.812;9.866;2022-09-09T15:15:54;6.57;;;1.17;;
20271;SDS011;10295;49.812;9.866;2022-09-09T15:18:21;5.07;;;0.87;;
20271;SDS011;10295;49.812;9.866;2022-09-09T15:20:48;6.03;;;1.00;;
20271;SDS011;10295;49.812;9.866;2022-09-09T15:23:15;5.85;;;0.90;;
20271;SDS011;10295;49.812;9.866;2022-09-09T15:25:52;4.50;;;0.82;;
20271;SDS011;10295;49.812;9.866;2022-09-09T15:28:19;3.92;;;0.65;;
20271;SDS011;10295;49.812;9.866;2022-09-09T15:30:47;5.45;;;1.00;;
20271;SDS011;10295;49.812;9.866;2022-09-09T15:33:15;5.20;;;0.90;;
20271;SDS011;10295;49.812;9.866;2022-09-09T15:35:42;6.72;;;1.00;;
20271;SDS011;10295;49.812;9.866;2022-09-09T15:38:09;7.22;;;1.33;;
20271;SDS011;10295;49.812;9.866;2022-09-09T15:40:39;5.78;;;0.73;;
20271;SDS011;10295;49.812;9.866;2022-09-09T15:43:06;3.53;;;0.77;;
20271;SDS011;10295;49.812;9.866;2022-09-09T15:45:35;4.25;;;0.90;;
20271;SDS011;10295;49.812;9.866;2022-09-09T15:48:03;6.35;;;0.70;;
20271;SDS011;10295;49.812;9.866;2022-09-09T15:50:30;4.32;;;0.80;;
20271;SDS011;10295;49.812;9.866;2022-09-09T15:52:58;5.85;;;1.13;;
20271;SDS011;10295;49.812;9.866;2022-09-09T15:55:26;4.55;;;0.70;;
20271;SDS011;10295;49.812;9.866;2022-09-09T15:57:53;8.10;;;0.90;;
20271;SDS011;10295;49.812;9.866;2022-09-09T16:00:21;10.27;;;1.10;;
20271;SDS011;10295;49.812;9.866;2022-09-09T16:02:49;5.75;;;1.10;;
20271;SDS011;10295;49.812;9.866;2022-09-09T16:05:16;6.30;;;1.13;;
20271;SDS011;10295;49.812;9.866;2022-09-09T16:07:43;6.53;;;1.10;;
20271;SDS011;10295;49.812;9.866;2022-09-09T16:10:11;5.18;;;0.90;;
20271;SDS011;10295;49.812;9.866;2022-09-09T16:12:39;5.57;;;1.00;;
20271;SDS011;10295;49.812;9.866;2022-09-09T16:15:06;3.45;;;1.00;;
20271;SDS011;10295;49.812;9.866;2022-09-09T16:17:34;6.82;;;1.20;;
20271;SDS011;10295;49.812;9.866;2022-09-09T16:20:04;5.18;;;1.08;;
20271;SDS011;10295;49.812;9.866;2022-09-09T16:22:34;3.80;;;1.00;;
20271;SDS011;10295;49.812;9.866;2022-09-09T16:25:01;6.28;;;1.00;;
20271;SDS011;10295;49.812;9.866;2022-09-09T16:27:28;6.83;;;1.30;;
20271;SDS011;10295;49.812;9.866;2022-09-09T16:29:55;6.50;;;1.00;;
20271;SDS011;10295;49.812;9.866;2022-09-09T16:32:22;5.13;;;1.17;;
20271;SDS011;10295;49.812;9.866;2022-09-09T16:34:49;6.17;;;0.90;;
20271;SDS011;10295;49.812;9.866;2022-09-09T16:37:17;3.50;;;0.83;;
20271;SDS011;10295;49.812;9.866;2022-09-09T16:39:45;5.60;;;0.90;;
20271;SDS011;10295;49.812;9.866;2022-09-09T16:42:12;3.67;;;0.80;;
20271;SDS011;10295;49.812;9.866;2022-09-09T16:44:39;7.03;;;0.97;;
20271;SDS011;10295;49.812;9.866;2022-09-09T16:47:07;6.67;;;0.80;;
20271;SDS011;10295;49.812;9.866;2022-09-09T16:49:34;3.43;;;0.80;;
20271;SDS011;10295;49.812;9.866;2022-09-09T16:52:02;6.23;;;0.80;;
20271;SDS011;10295;49.812;9.866;2022-09-09T16:54:29;6.40;;;1.00;;
20271;SDS011;10295;49.812;9.866;2022-09-09T16:56:56;5.67;;;1.00;;
20271;SDS011;10295;49.812;9.866;2022-09-09T16:59:23;5.00;;;0.73;;